sensor_id;sensor_type;location;lat;lon;timestamp;pressure;altitude;pressure_sealevel;temperature;humidity
8101;BME280;4093;53.470;9.832;2023-02-18T00:01:33;101527.59;;;9.03;81.98
8101;BME280;4093;53.470;9.832;2023-02-18T00:04:03;101539.66;;;9.25;81.81
8101;BME280;4093;53.470;9.832;2023-02-18T00:06:33;101535.34;;;9.23;81.87
8101;BME280;4093;53.470;9.832;2023-02-18T00:09:02;101540.50;;;9.23;81.89
8101;BME280;4093;53.470;9.832;2023-02-18T00:11:32;101525.03;;;9.43;80.76
8101;BME280;4093;53.470;9.832;2023-02-18T00:14:02;101523.31;;;9.42;80.71
8101;BME280;4093;53.470;9.832;2023-02-18T00:16:31;101534.50;;;9.50;80.16
8101;BME280;4093;53.470;9.832;2023-02-18T00:19:00;101535.38;;;9.69;79.22
8101;BME280;4093;53.470;9.832;2023-02-18T00:21:31;101517.28;;;9.66;78.84
8101;BME280;4093;53.470;9.832;2023-02-18T00:23:59;101530.19;;;9.64;79.03
8101;BME280;4093;53.470;9.832;2023-02-18T00:26:27;101531.94;;;9.50;79.14
8101;BME280;4093;53.470;9.832;2023-02-18T00:28:55;101543.97;;;9.33;80.15
8101;BME280;4093;53.470;9.832;2023-02-18T00:31:25;101537.94;;;9.44;80.61
8101;BME280;4093;53.470;9.832;2023-02-18T00:33:54;101533.66;;;9.37;80.08
8101;BME280;4093;53.470;9.832;2023-02-18T00:36:26;101508.69;;;9.15;80.53
8101;BME280;4093;53.470;9.832;2023-02-18T00:38:58;101543.13;;;9.47;79.77
8101;BME280;4093;53.470;9.832;2023-02-18T00:41:27;101538.78;;;9.03;81.16
8101;BME280;4093;53.470;9.832;2023-02-18T00:43:55;101551.72;;;9.54;80.76
8101;BME280;4093;53.470;9.832;2023-02-18T00:46:23;101549.13;;;9.57;80.44
8101;BME280;4093;53.470;9.832;2023-02-18T00:48:52;101538.81;;;9.37;80.96
8101;BME280;4093;53.470;9.832;2023-02-18T00:51:20;101552.53;;;9.24;82.33
8101;BME280;4093;53.470;9.832;2023-02-18T00:53:48;101550.81;;;9.14;82.21
8101;BME280;4093;53.470;9.832;2023-02-18T00:56:18;101562.03;;;9.28;81.30
8101;BME280;4093;53.470;9.832;2023-02-18T00:58:46;101555.16;;;9.62;79.63
8101;BME280;4093;53.470;9.832;2023-02-18T01:01:14;101562.03;;;9.66;79.63
8101;BME280;4093;53.470;9.832;2023-02-18T01:03:42;101564.63;;;9.31;81.05
8101;BME280;4093;53.470;9.832;2023-02-18T01:06:11;101563.75;;;9.27;81.76
8101;BME280;4093;53.470;9.832;2023-02-18T01:08:39;101572.31;;;9.17;82.49
8101;BME280;4093;53.470;9.832;2023-02-18T01:11:08;101571.47;;;9.26;82.59
8101;BME280;4093;53.470;9.832;2023-02-18T01:13:38;101569.78;;;9.22;82.11
8101;BME280;4093;53.470;9.832;2023-02-18T01:16:06;101559.44;;;9.13;82.26
8101;BME280;4093;53.470;9.832;2023-02-18T01:18:35;101556.84;;;9.20;82.26
8101;BME280;4093;53.470;9.832;2023-02-18T01:21:04;101552.56;;;9.29;81.09
8101;BME280;4093;53.470;9.832;2023-02-18T01:23:33;101555.94;;;8.95;82.41
8101;BME280;4093;53.470;9.832;2023-02-18T01:26:01;101548.19;;;8.88;83.39
8101;BME280;4093;53.470;9.832;2023-02-18T01:28:30;101565.38;;;8.81;83.38
8101;BME280;4093;53.470;9.832;2023-02-18T01:31:03;101546.41;;;8.70;83.89
8101;BME280;4093;53.470;9.832;2023-02-18T01:33:33;101564.47;;;8.73;83.34
8101;BME280;4093;53.470;9.832;2023-02-18T01:36:01;101566.31;;;9.12;82.43
8101;BME280;4093;53.470;9.832;2023-02-18T01:38:29;101557.69;;;9.04;82.34
8101;BME280;4093;53.470;9.832;2023-02-18T01:40:58;101553.44;;;9.21;81.41
8101;BME280;4093;53.470;9.832;2023-02-18T01:43:25;101540.50;;;9.17;81.18
8101;BME280;4093;53.470;9.832;2023-02-18T01:46:02;101546.53;;;9.17;80.62
8101;BME280;4093;53.470;9.832;2023-02-18T01:48:33;101545.66;;;9.04;81.72
8101;BME280;4093;53.470;9.832;2023-02-18T01:51:10;101536.06;;;8.61;83.00
8101;BME280;4093;53.470;9.832;2023-02-18T01:53:43;101539.63;;;8.98;82.57
8101;BME280;4093;53.470;9.832;2023-02-18T01:56:18;101550.78;;;8.95;82.73
8101;BME280;4093;53.470;9.832;2023-02-18T01:58:47;101548.25;;;9.06;82.38
8101;BME280;4093;53.470;9.832;2023-02-18T02:01:17;101539.63;;;9.18;80.99
8101;BME280;4093;53.470;9.832;2023-02-18T02:03:45;101539.56;;;8.79;83.31
8101;BME280;4093;53.470;9.832;2023-02-18T02:06:16;101538.69;;;8.73;82.84
8101;BME280;4093;53.470;9.832;2023-02-18T02:08:46;101545.50;;;8.52;84.47
8101;BME280;4093;53.470;9.832;2023-02-18T02:11:26;101532.69;;;8.77;82.66
8101;BME280;4093;53.470;9.832;2023-02-18T02:14:07;101545.56;;;8.77;84.28
8101;BME280;4093;53.470;9.832;2023-02-18T02:16:42;101543.97;;;9.19;82.81
8101;BME280;4093;53.470;9.832;2023-02-18T02:19:41;101549.91;;;8.84;84.07
8101;BME280;4093;53.470;9.832;2023-02-18T02:22:30;101545.56;;;8.77;84.31
8101;BME280;4093;53.470;9.832;2023-02-18T02:25:09;101538.75;;;8.94;83.94
8101;BME280;4093;53.470;9.832;2023-02-18T02:28:07;101516.41;;;8.98;83.25
8101;BME280;4093;53.470;9.832;2023-02-18T02:30:52;101539.63;;;9.12;82.52
8101;BME280;4093;53.470;9.832;2023-02-18T02:36:42;101539.63;;;9.06;83.80
8101;BME280;4093;53.470;9.832;2023-02-18T02:39:19;101533.63;;;9.19;83.01
8101;BME280;4093;53.470;9.832;2023-02-18T02:41:53;101526.72;;;8.93;84.15
8101;BME280;4093;53.470;9.832;2023-02-18T02:44:29;101522.47;;;9.24;82.42
8101;BME280;4093;53.470;9.832;2023-02-18T02:47:07;101509.47;;;8.74;83.68
8101;BME280;4093;53.470;9.832;2023-02-18T02:49:40;101525.88;;;9.10;83.79
8101;BME280;4093;53.470;9.832;2023-02-18T02:52:14;101525.00;;;8.95;84.10
8101;BME280;4093;53.470;9.832;2023-02-18T02:54:44;101525.00;;;8.88;84.27
8101;BME280;4093;53.470;9.832;2023-02-18T02:57:43;101522.44;;;8.97;84.48
8101;BME280;4093;53.470;9.832;2023-02-18T03:00:12;101518.97;;;8.92;84.22
8101;BME280;4093;53.470;9.832;2023-02-18T03:03:03;101518.09;;;8.90;83.94
8101;BME280;4093;53.470;9.832;2023-02-18T03:05:46;101519.84;;;9.04;83.83
8101;BME280;4093;53.470;9.832;2023-02-18T03:08:28;101525.03;;;9.20;83.43
8101;BME280;4093;53.470;9.832;2023-02-18T03:11:03;101521.56;;;8.87;84.60
8101;BME280;4093;53.470;9.832;2023-02-18T03:13:43;101510.41;;;9.16;83.53
8101;BME280;4093;53.470;9.832;2023-02-18T03:16:21;101519.88;;;9.21;82.83
8101;BME280;4093;53.470;9.832;2023-02-18T03:18:56;101503.50;;;9.06;83.20
8101;BME280;4093;53.470;9.832;2023-02-18T03:21:28;101417.50;;;8.84;82.38
8101;BME280;4093;53.470;9.832;2023-02-18T03:24:01;101511.25;;;9.24;82.51
8101;BME280;4093;53.470;9.832;2023-02-18T03:26:31;101459.69;;;8.96;82.59
8101;BME280;4093;53.470;9.832;2023-02-18T03:29:02;101502.66;;;9.03;83.47
8101;BME280;4093;53.470;9.832;2023-02-18T03:31:32;101499.22;;;9.17;82.83
8101;BME280;4093;53.470;9.832;2023-02-18T03:34:04;101474.28;;;9.07;82.48
8101;BME280;4093;53.470;9.832;2023-02-18T03:36:34;101517.28;;;9.49;82.28
8101;BME280;4093;53.470;9.832;2023-02-18T03:39:06;101510.41;;;9.19;83.21
8101;BME280;4093;53.470;9.832;2023-02-18T03:41:35;101514.69;;;9.40;82.41
8101;BME280;4093;53.470;9.832;2023-02-18T03:44:04;101480.28;;;9.21;81.93
8101;BME280;4093;53.470;9.832;2023-02-18T03:46:33;101510.41;;;9.14;83.09
8101;BME280;4093;53.470;9.832;2023-02-18T03:49:02;101511.28;;;9.35;83.23
8101;BME280;4093;53.470;9.832;2023-02-18T03:51:30;101513.84;;;9.25;82.91
8101;BME280;4093;53.470;9.832;2023-02-18T03:53:58;101519.00;;;9.52;82.55
8101;BME280;4093;53.470;9.832;2023-02-18T03:56:27;101526.75;;;9.68;81.69
8101;BME280;4093;53.470;9.832;2023-02-18T03:58:55;101515.53;;;9.79;81.81
8101;BME280;4093;53.470;9.832;2023-02-18T04:01:23;101517.28;;;9.64;82.61
8101;BME280;4093;53.470;9.832;2023-02-18T04:03:50;101511.28;;;9.56;83.58
8101;BME280;4093;53.470;9.832;2023-02-18T04:06:20;101517.28;;;9.31;84.58
8101;BME280;4093;53.470;9.832;2023-02-18T04:08:48;101514.72;;;9.57;83.82
8101;BME280;4093;53.470;9.832;2023-02-18T04:11:16;101508.69;;;9.64;83.32
8101;BME280;4093;53.470;9.832;2023-02-18T04:13:45;101498.38;;;9.30;84.49
8101;BME280;4093;53.470;9.832;2023-02-18T04:16:13;101489.78;;;9.37;84.36
8101;BME280;4093;53.470;9.832;2023-02-18T04:18:41;101491.47;;;9.34;85.63
8101;BME280;4093;53.470;9.832;2023-02-18T04:21:09;101476.84;;;9.39;84.36
8101;BME280;4093;53.470;9.832;2023-02-18T04:23:37;101476.88;;;9.13;86.75
8101;BME280;4093;53.470;9.832;2023-02-18T04:26:04;101472.56;;;9.16;86.02
8101;BME280;4093;53.470;9.832;2023-02-18T04:28:33;101458.81;;;9.07;85.99
8101;BME280;4093;53.470;9.832;2023-02-18T04:31:02;101467.38;;;9.36;85.42
8101;BME280;4093;53.470;9.832;2023-02-18T04:33:30;101461.38;;;9.36;85.89
8101;BME280;4093;53.470;9.832;2023-02-18T04:35:57;101461.41;;;9.37;84.91
8101;BME280;4093;53.470;9.832;2023-02-18T04:38:25;101454.50;;;9.39;85.43
8101;BME280;4093;53.470;9.832;2023-02-18T04:40:53;101456.19;;;9.53;84.73
8101;BME280;4093;53.470;9.832;2023-02-18T04:43:21;101440.72;;;9.49;85.02
8101;BME280;4093;53.470;9.832;2023-02-18T04:45:48;101447.56;;;9.55;84.93
8101;BME280;4093;53.470;9.832;2023-02-18T04:48:17;101444.16;;;9.53;84.16
8101;BME280;4093;53.470;9.832;2023-02-18T04:50:46;101440.66;;;9.65;84.35
8101;BME280;4093;53.470;9.832;2023-02-18T04:53:13;101443.31;;;9.45;84.53
8101;BME280;4093;53.470;9.832;2023-02-18T04:55:41;101438.16;;;9.46;84.77
8101;BME280;4093;53.470;9.832;2023-02-18T04:58:09;101442.38;;;9.84;83.41
8101;BME280;4093;53.470;9.832;2023-02-18T05:00:36;101442.38;;;9.70;83.54
8101;BME280;4093;53.470;9.832;2023-02-18T05:03:04;101450.97;;;9.74;83.80
8101;BME280;4093;53.470;9.832;2023-02-18T05:05:33;101440.69;;;9.59;84.81
8101;BME280;4093;53.470;9.832;2023-02-18T05:08:01;101439.00;;;9.48;85.18
8101;BME280;4093;53.470;9.832;2023-02-18T05:10:29;101450.16;;;9.49;86.28
8101;BME280;4093;53.470;9.832;2023-02-18T05:12:57;101451.91;;;9.44;85.50
8101;BME280;4093;53.470;9.832;2023-02-18T05:15:25;101441.59;;;9.36;86.51
8101;BME280;4093;53.470;9.832;2023-02-18T05:17:53;101442.44;;;9.44;86.03
8101;BME280;4093;53.470;9.832;2023-02-18T05:20:21;101432.97;;;9.42;86.06
8101;BME280;4093;53.470;9.832;2023-02-18T05:22:50;101426.94;;;9.54;85.96
8101;BME280;4093;53.470;9.832;2023-02-18T05:25:17;101426.09;;;9.50;85.87
8101;BME280;4093;53.470;9.832;2023-02-18T05:27:45;101417.53;;;9.31;86.53
8101;BME280;4093;53.470;9.832;2023-02-18T05:30:13;101417.47;;;9.54;87.37
8101;BME280;4093;53.470;9.832;2023-02-18T05:32:41;101418.34;;;9.48;87.07
8101;BME280;4093;53.470;9.832;2023-02-18T05:35:09;101406.38;;;8.91;89.91
8101;BME280;4093;53.470;9.832;2023-02-18T05:37:37;101423.53;;;9.18;89.53
8101;BME280;4093;53.470;9.832;2023-02-18T05:40:07;101416.69;;;9.09;89.27
8101;BME280;4093;53.470;9.832;2023-02-18T05:42:34;101422.66;;;9.46;87.31
8101;BME280;4093;53.470;9.832;2023-02-18T05:45:03;101412.34;;;9.46;86.88
8101;BME280;4093;53.470;9.832;2023-02-18T05:47:30;101406.28;;;9.46;86.99
8101;BME280;4093;53.470;9.832;2023-02-18T05:49:58;101402.88;;;9.24;87.85
8101;BME280;4093;53.470;9.832;2023-02-18T05:52:26;101402.03;;;9.43;87.21
8101;BME280;4093;53.470;9.832;2023-02-18T05:54:54;101401.13;;;9.60;87.07
8101;BME280;4093;53.470;9.832;2023-02-18T05:57:24;101397.63;;;9.73;86.31
8101;BME280;4093;53.470;9.832;2023-02-18T05:59:51;101393.34;;;9.69;87.01
8101;BME280;4093;53.470;9.832;2023-02-18T06:02:19;101374.34;;;9.78;85.65
8101;BME280;4093;53.470;9.832;2023-02-18T06:04:47;101374.34;;;9.79;86.09
8101;BME280;4093;53.470;9.832;2023-02-18T06:07:15;101385.53;;;9.80;86.61
8101;BME280;4093;53.470;9.832;2023-02-18T06:09:42;101382.16;;;9.64;86.52
8101;BME280;4093;53.470;9.832;2023-02-18T06:12:10;101386.47;;;9.66;86.98
8101;BME280;4093;53.470;9.832;2023-02-18T06:14:39;101369.28;;;9.62;86.64
8101;BME280;4093;53.470;9.832;2023-02-18T06:17:08;101370.94;;;9.74;87.52
8101;BME280;4093;53.470;9.832;2023-02-18T06:19:36;101366.56;;;9.88;87.24
8101;BME280;4093;53.470;9.832;2023-02-18T06:22:04;101347.66;;;9.83;86.72
8101;BME280;4093;53.470;9.832;2023-02-18T06:24:32;101337.34;;;9.74;86.72
8101;BME280;4093;53.470;9.832;2023-02-18T06:27:00;101338.16;;;9.88;86.46
8101;BME280;4093;53.470;9.832;2023-02-18T06:29:28;101332.19;;;9.71;86.92
8101;BME280;4093;53.470;9.832;2023-02-18T06:31:58;101333.81;;;9.95;86.02
8101;BME280;4093;53.470;9.832;2023-02-18T06:34:26;101323.53;;;9.90;86.32
8101;BME280;4093;53.470;9.832;2023-02-18T06:36:54;101316.69;;;9.77;86.70
8101;BME280;4093;53.470;9.832;2023-02-18T06:39:22;101315.09;;;9.50;88.25
8101;BME280;4093;53.470;9.832;2023-02-18T06:41:50;101306.34;;;9.82;86.97
8101;BME280;4093;53.470;9.832;2023-02-18T06:44:17;101306.34;;;9.77;87.29
8101;BME280;4093;53.470;9.832;2023-02-18T06:46:45;101288.38;;;9.57;87.27
8101;BME280;4093;53.470;9.832;2023-02-18T06:49:14;101226.63;;;9.19;87.80
8101;BME280;4093;53.470;9.832;2023-02-18T06:51:42;101248.81;;;9.54;87.35
8101;BME280;4093;53.470;9.832;2023-02-18T06:54:10;101279.00;;;9.41;89.35
8101;BME280;4093;53.470;9.832;2023-02-18T06:56:37;101271.97;;;9.69;87.43
8101;BME280;4093;53.470;9.832;2023-02-18T06:59:05;101263.38;;;9.64;88.11
8101;BME280;4093;53.470;9.832;2023-02-18T07:01:33;101252.41;;;9.19;90.16
8101;BME280;4093;53.470;9.832;2023-02-18T07:04:01;101250.44;;;9.73;87.91
8101;BME280;4093;53.470;9.832;2023-02-18T07:06:30;101242.78;;;9.56;88.02
8101;BME280;4093;53.470;9.832;2023-02-18T07:08:58;101241.16;;;9.38;89.20
8101;BME280;4093;53.470;9.832;2023-02-18T07:11:26;101254.81;;;9.56;88.81
8101;BME280;4093;53.470;9.832;2023-02-18T07:13:53;101239.31;;;9.56;88.21
8101;BME280;4093;53.470;9.832;2023-02-18T07:16:21;101230.81;;;9.38;88.01
8101;BME280;4093;53.470;9.832;2023-02-18T07:18:49;101231.59;;;9.54;89.32
8101;BME280;4093;53.470;9.832;2023-02-18T07:21:17;101230.63;;;9.73;87.67
8101;BME280;4093;53.470;9.832;2023-02-18T07:23:46;101219.38;;;9.81;86.81
8101;BME280;4093;53.470;9.832;2023-02-18T07:26:13;101205.56;;;9.86;86.60
8101;BME280;4093;53.470;9.832;2023-02-18T07:28:41;101166.28;;;9.37;87.76
8101;BME280;4093;53.470;9.832;2023-02-18T07:31:09;101179.19;;;9.44;88.54
8101;BME280;4093;53.470;9.832;2023-02-18T07:33:37;101172.16;;;9.65;88.33
8101;BME280;4093;53.470;9.832;2023-02-18T07:36:06;101168.63;;;9.81;87.91
8101;BME280;4093;53.470;9.832;2023-02-18T07:38:35;101168.41;;;10.07;86.90
8101;BME280;4093;53.470;9.832;2023-02-18T07:41:04;101120.44;;;9.74;86.98
8101;BME280;4093;53.470;9.832;2023-02-18T07:43:32;101173.59;;;10.03;87.02
8101;BME280;4093;53.470;9.832;2023-02-18T07:46:04;101163.34;;;9.95;87.61
8101;BME280;4093;53.470;9.832;2023-02-18T07:48:33;101150.00;;;9.35;89.86
8101;BME280;4093;53.470;9.832;2023-02-18T07:51:04;101148.19;;;9.44;90.64
8101;BME280;4093;53.470;9.832;2023-02-18T07:53:32;101134.50;;;9.35;90.63
8101;BME280;4093;53.470;9.832;2023-02-18T07:56:00;101121.53;;;9.44;90.62
8101;BME280;4093;53.470;9.832;2023-02-18T07:58:31;101120.81;;;9.25;91.83
8101;BME280;4093;53.470;9.832;2023-02-18T08:01:03;101105.97;;;9.56;91.18
8101;BME280;4093;53.470;9.832;2023-02-18T08:03:32;101112.03;;;9.49;91.79
8101;BME280;4093;53.470;9.832;2023-02-18T08:06:02;101099.81;;;9.71;90.54
8101;BME280;4093;53.470;9.832;2023-02-18T08:08:31;101099.00;;;9.64;90.58
8101;BME280;4093;53.470;9.832;2023-02-18T08:11:02;101106.56;;;9.89;90.08
8101;BME280;4093;53.470;9.832;2023-02-18T08:13:46;101108.34;;;9.81;89.30
8101;BME280;4093;53.470;9.832;2023-02-18T08:16:13;101103.72;;;10.16;89.40
8101;BME280;4093;53.470;9.832;2023-02-18T08:18:42;101090.38;;;9.67;90.04
8101;BME280;4093;53.470;9.832;2023-02-18T08:21:10;101077.53;;;9.61;91.58
8101;BME280;4093;53.470;9.832;2023-02-18T08:23:37;101077.44;;;9.73;91.72
8101;BME280;4093;53.470;9.832;2023-02-18T08:26:06;101034.84;;;9.17;93.21
8101;BME280;4093;53.470;9.832;2023-02-18T08:28:34;101036.63;;;9.10;94.89
8101;BME280;4093;53.470;9.832;2023-02-18T08:31:03;101066.72;;;9.05;97.07
8101;BME280;4093;53.470;9.832;2023-02-18T08:33:32;101057.03;;;9.44;95.36
8101;BME280;4093;53.470;9.832;2023-02-18T08:36:00;101042.28;;;9.55;93.96
8101;BME280;4093;53.470;9.832;2023-02-18T08:38:27;101049.34;;;9.33;96.05
8101;BME280;4093;53.470;9.832;2023-02-18T08:41:01;101048.38;;;9.49;95.76
8101;BME280;4093;53.470;9.832;2023-02-18T08:43:29;101058.25;;;9.99;93.35
8101;BME280;4093;53.470;9.832;2023-02-18T08:45:57;101029.84;;;10.00;92.37
8101;BME280;4093;53.470;9.832;2023-02-18T08:48:29;101045.09;;;10.20;91.21
8101;BME280;4093;53.470;9.832;2023-02-18T08:50:57;101045.88;;;10.30;91.45
8101;BME280;4093;53.470;9.832;2023-02-18T08:53:25;101026.91;;;10.32;91.38
8101;BME280;4093;53.470;9.832;2023-02-18T08:55:53;101030.28;;;10.39;91.73
8101;BME280;4093;53.470;9.832;2023-02-18T08:58:20;101018.41;;;10.18;92.40
8101;BME280;4093;53.470;9.832;2023-02-18T09:00:48;101008.44;;;9.86;93.56
8101;BME280;4093;53.470;9.832;2023-02-18T09:03:16;100990.75;;;9.43;95.75
8101;BME280;4093;53.470;9.832;2023-02-18T09:05:45;100999.97;;;9.73;95.54
8101;BME280;4093;53.470;9.832;2023-02-18T09:08:13;100986.56;;;10.19;93.02
8101;BME280;4093;53.470;9.832;2023-02-18T09:10:41;100986.44;;;10.31;92.80
8101;BME280;4093;53.470;9.832;2023-02-18T09:13:11;100976.03;;;10.37;92.39
8101;BME280;4093;53.470;9.832;2023-02-18T09:15:39;100947.09;;;10.06;92.82
8101;BME280;4093;53.470;9.832;2023-02-18T09:18:07;100947.06;;;10.08;93.46
8101;BME280;4093;53.470;9.832;2023-02-18T09:20:34;100930.59;;;10.15;92.89
8101;BME280;4093;53.470;9.832;2023-02-18T09:23:04;100926.53;;;9.97;94.44
8101;BME280;4093;53.470;9.832;2023-02-18T09:25:31;100939.69;;;10.48;92.45
8101;BME280;4093;53.470;9.832;2023-02-18T09:27:59;100924.66;;;10.72;91.33
8101;BME280;4093;53.470;9.832;2023-02-18T09:30:28;100911.31;;;10.44;90.57
8101;BME280;4093;53.470;9.832;2023-02-18T09:32:55;100917.44;;;10.36;92.65
8101;BME280;4093;53.470;9.832;2023-02-18T09:35:23;100916.63;;;10.34;93.47
8101;BME280;4093;53.470;9.832;2023-02-18T09:37:51;100898.88;;;9.31;95.42
8101;BME280;4093;53.470;9.832;2023-02-18T09:40:25;100910.13;;;10.00;96.22
8101;BME280;4093;53.470;9.832;2023-02-18T09:42:54;100901.72;;;10.52;94.00
8101;BME280;4093;53.470;9.832;2023-02-18T09:45:23;100898.44;;;10.40;92.94
8101;BME280;4093;53.470;9.832;2023-02-18T09:47:51;100879.53;;;9.67;97.25
8101;BME280;4093;53.470;9.832;2023-02-18T09:50:21;100886.94;;;9.96;95.91
8101;BME280;4093;53.470;9.832;2023-02-18T09:52:51;100885.59;;;10.34;95.65
8101;BME280;4093;53.470;9.832;2023-02-18T09:55:23;100859.66;;;10.40;95.10
8101;BME280;4093;53.470;9.832;2023-02-18T09:57:53;100865.88;;;10.24;96.02
8101;BME280;4093;53.470;9.832;2023-02-18T10:00:26;100855.72;;;10.13;96.73
8101;BME280;4093;53.470;9.832;2023-02-18T10:02:57;100853.66;;;10.37;97.09
8101;BME280;4093;53.470;9.832;2023-02-18T10:05:27;100845.16;;;10.32;98.06
8101;BME280;4093;53.470;9.832;2023-02-18T10:07:59;100836.50;;;10.33;98.99
8101;BME280;4093;53.470;9.832;2023-02-18T10:10:35;100831.53;;;10.17;100.00
8101;BME280;4093;53.470;9.832;2023-02-18T10:13:05;100837.16;;;10.47;98.84
8101;BME280;4093;53.470;9.832;2023-02-18T10:15:35;100847.88;;;10.78;99.71
8101;BME280;4093;53.470;9.832;2023-02-18T10:18:26;100837.97;;;11.02;98.01
8101;BME280;4093;53.470;9.832;2023-02-18T10:21:04;100824.19;;;11.00;97.58
8101;BME280;4093;53.470;9.832;2023-02-18T10:23:36;100823.00;;;11.18;98.00
8101;BME280;4093;53.470;9.832;2023-02-18T10:26:09;100809.78;;;10.86;99.89
8101;BME280;4093;53.470;9.832;2023-02-18T10:28:39;100808.72;;;10.97;99.89
8101;BME280;4093;53.470;9.832;2023-02-18T10:31:09;100820.41;;;11.19;100.00
8101;BME280;4093;53.470;9.832;2023-02-18T10:33:43;100813.16;;;11.37;98.66
8101;BME280;4093;53.470;9.832;2023-02-18T10:36:22;100807.84;;;11.44;100.00
8101;BME280;4093;53.470;9.832;2023-02-18T10:39:12;100799.69;;;11.63;99.29
8101;BME280;4093;53.470;9.832;2023-02-18T10:41:48;100812.56;;;11.66;100.00
8101;BME280;4093;53.470;9.832;2023-02-18T10:44:27;100799.41;;;11.75;100.00
8101;BME280;4093;53.470;9.832;2023-02-18T10:47:02;100794.47;;;11.64;100.00
8101;BME280;4093;53.470;9.832;2023-02-18T10:49:51;100785.72;;;12.10;100.00
8101;BME280;4093;53.470;9.832;2023-02-18T10:52:22;100779.28;;;12.26;100.00
8101;BME280;4093;53.470;9.832;2023-02-18T10:54:52;100769.97;;;12.19;100.00
8101;BME280;4093;53.470;9.832;2023-02-18T10:57:26;100783.69;;;12.23;100.00
8101;BME280;4093;53.470;9.832;2023-02-18T10:59:57;100761.28;;;12.20;100.00
8101;BME280;4093;53.470;9.832;2023-02-18T11:02:27;100753.03;;;12.03;100.00
8101;BME280;4093;53.470;9.832;2023-02-18T11:04:58;100744.34;;;12.07;100.00
8101;BME280;4093;53.470;9.832;2023-02-18T11:07:31;100757.09;;;12.15;100.00
8101;BME280;4093;53.470;9.832;2023-02-18T11:10:01;100753.94;;;12.38;100.00
8101;BME280;4093;53.470;9.832;2023-02-18T11:12:43;100748.59;;;12.44;100.00
8101;BME280;4093;53.470;9.832;2023-02-18T11:15:18;100732.56;;;12.30;100.00
8101;BME280;4093;53.470;9.832;2023-02-18T11:17:47;100720.38;;;11.97;100.00
8101;BME280;4093;53.470;9.832;2023-02-18T11:20:26;100736.19;;;12.57;100.00
8101;BME280;4093;53.470;9.832;2023-02-18T11:23:15;100671.75;;;12.07;100.00
8101;BME280;4093;53.470;9.832;2023-02-18T11:25:54;100730.72;;;12.33;100.00
8101;BME280;4093;53.470;9.832;2023-02-18T11:28:30;100715.22;;;11.96;100.00
8101;BME280;4093;53.470;9.832;2023-02-18T11:31:01;100717.72;;;11.99;100.00
8101;BME280;4093;53.470;9.832;2023-02-18T11:33:33;100661.91;;;11.86;100.00
8101;BME280;4093;53.470;9.832;2023-02-18T11:36:16;100688.56;;;12.26;100.00
8101;BME280;4093;53.470;9.832;2023-02-18T11:38:47;100714.63;;;12.20;100.00
8101;BME280;4093;53.470;9.832;2023-02-18T11:41:17;100722.16;;;12.64;100.00
8101;BME280;4093;53.470;9.832;2023-02-18T11:43:49;100705.63;;;12.68;100.00
8101;BME280;4093;53.470;9.832;2023-02-18T11:46:21;100723.50;;;12.79;100.00
8101;BME280;4093;53.470;9.832;2023-02-18T11:48:50;100673.75;;;12.32;100.00
8101;BME280;4093;53.470;9.832;2023-02-18T11:51:20;100718.97;;;12.54;100.00
8101;BME280;4093;53.470;9.832;2023-02-18T11:53:56;100716.25;;;12.90;100.00
8101;BME280;4093;53.470;9.832;2023-02-18T11:56:27;100727.13;;;12.71;100.00
8101;BME280;4093;53.470;9.832;2023-02-18T11:58:57;100729.03;;;12.66;100.00
8101;BME280;4093;53.470;9.832;2023-02-18T12:01:36;100724.00;;;12.60;100.00
8101;BME280;4093;53.470;9.832;2023-02-18T12:04:10;100734.75;;;12.09;100.00
8101;BME280;4093;53.470;9.832;2023-02-18T12:06:45;100737.34;;;12.45;100.00
8101;BME280;4093;53.470;9.832;2023-02-18T12:09:21;100738.28;;;12.42;100.00
8101;BME280;4093;53.470;9.832;2023-02-18T12:11:52;100750.19;;;12.49;100.00
8101;BME280;4093;53.470;9.832;2023-02-18T12:14:23;100734.06;;;12.38;100.00
8101;BME280;4093;53.470;9.832;2023-02-18T12:20:02;100712.41;;;12.05;100.00
8101;BME280;4093;53.470;9.832;2023-02-18T12:22:40;100760.66;;;12.11;100.00
8101;BME280;4093;53.470;9.832;2023-02-18T12:25:21;100753.50;;;11.85;100.00
8101;BME280;4093;53.470;9.832;2023-02-18T12:27:58;100774.19;;;12.23;100.00
8101;BME280;4093;53.470;9.832;2023-02-18T12:30:46;100770.38;;;12.01;100.00
8101;BME280;4093;53.470;9.832;2023-02-18T12:33:26;100781.38;;;12.48;100.00
8101;BME280;4093;53.470;9.832;2023-02-18T12:36:09;100777.19;;;12.41;100.00
8101;BME280;4093;53.470;9.832;2023-02-18T12:39:00;100766.28;;;12.62;100.00
8101;BME280;4093;53.470;9.832;2023-02-18T12:41:47;100777.53;;;12.29;100.00
8101;BME280;4093;53.470;9.832;2023-02-18T12:44:27;100773.06;;;12.34;100.00
8101;BME280;4093;53.470;9.832;2023-02-18T12:47:21;100783.97;;;12.11;100.00
8101;BME280;4093;53.470;9.832;2023-02-18T12:50:30;100783.66;;;12.24;100.00
8101;BME280;4093;53.470;9.832;2023-02-18T12:53:11;100790.38;;;11.96;100.00
8101;BME280;4093;53.470;9.832;2023-02-18T12:55:52;100798.91;;;12.37;100.00
8101;BME280;4093;53.470;9.832;2023-02-18T12:58:33;100809.41;;;12.32;100.00
8101;BME280;4093;53.470;9.832;2023-02-18T13:04:17;100798.97;;;11.96;100.00
8101;BME280;4093;53.470;9.832;2023-02-18T13:07:01;100814.03;;;12.19;100.00
8101;BME280;4093;53.470;9.832;2023-02-18T13:09:44;100822.28;;;11.98;100.00
8101;BME280;4093;53.470;9.832;2023-02-18T13:12:19;100820.75;;;11.89;100.00
8101;BME280;4093;53.470;9.832;2023-02-18T13:14:52;100825.63;;;12.40;100.00
8101;BME280;4093;53.470;9.832;2023-02-18T13:17:24;100828.06;;;12.09;100.00
8101;BME280;4093;53.470;9.832;2023-02-18T13:19:58;100824.16;;;11.91;100.00
8101;BME280;4093;53.470;9.832;2023-02-18T13:22:29;100824.41;;;11.77;100.00
8101;BME280;4093;53.470;9.832;2023-02-18T13:24:58;100829.34;;;11.91;100.00
8101;BME280;4093;53.470;9.832;2023-02-18T13:27:31;100837.28;;;11.80;100.00
8101;BME280;4093;53.470;9.832;2023-02-18T13:30:17;100776.09;;;11.75;100.00
8101;BME280;4093;53.470;9.832;2023-02-18T13:32:52;100854.53;;;12.23;100.00
8101;BME280;4093;53.470;9.832;2023-02-18T13:35:28;100848.13;;;12.01;100.00
8101;BME280;4093;53.470;9.832;2023-02-18T13:38:09;100850.09;;;11.90;100.00
8101;BME280;4093;53.470;9.832;2023-02-18T13:40:39;100855.50;;;11.77;100.00
8101;BME280;4093;53.470;9.832;2023-02-18T13:43:20;100867.28;;;11.94;100.00
8101;BME280;4093;53.470;9.832;2023-02-18T13:46:03;100866.09;;;11.65;100.00
8101;BME280;4093;53.470;9.832;2023-02-18T13:48:40;100871.66;;;11.92;100.00